Golden, British Columbia

10:20 AM MDT on August 30, 2014 (GMT -0600)
Golden | Change Station
CLOSE
Current Station
Airport
Location: Golden,
Elevation: 2575 ft
Nearby Weather Stations

Elev 2575 ft 51.30 °N, 116.98 °W | Updated 20 minutes ago

Mostly Cloudy
Mostly Cloudy
48 °F
Feels Like 48 °F
N
4
Wind Variable Wind from West

Today is forecast to be nearly the same temperature as yesterday.

Today
High -- | Low -- °F
--% Chance of Precip.
Yesterday
High -- | Low -- °F
Precip. -- in
6:57 AM 8:37 PM
Waxing Crescent, 23% visible
Pressure 29.87 in
Visibility 3.0 miles
Clouds Scattered Clouds 6500 ft
Mostly Cloudy 22000 ft
Dew Point 48 °F
Humidity 100%
Rainfall 0.00 in
Snow Depth Not available.
UV 1 out of 12
Pollen Not available.
Air Quality Not available.
Flu Activity Not available.
METAR CYGE 301600Z 27003KT 270V350 3SM BR SCT065 BKN220 09/09 A2985 RMK FG3SC1CI2 SLP115 DENSITY ALT 2600FT

More Conditions Fewer Conditions

Pressure 29.87 in
Visibility 3.0 miles
Clouds Scattered Clouds 6500 ft
Mostly Cloudy 22000 ft
Dew Point 48 °F
Humidity 100%
Rainfall 0.00 in
Snow Depth Not available.
UV 1 out of 12
Pollen Not available.
Air Quality Not available.
Flu Activity Not available.
METAR CYGE 301600Z 27003KT 270V350 3SM BR SCT065 BKN220 09/09 A2985 RMK FG3SC1CI2 SLP115 DENSITY ALT 2600FT

More Conditions Fewer Conditions

10-Day Weather Forecast

Almanac

Astronomy

Aug. 30, 2014 Rise Set
Actual Time 6:57 AM MDT 8:37 PM MDT
Civil Twilight 6:22 AM MDT 9:12 PM MDT
Nautical Twilight 5:39 AM MDT 9:55 PM MDT
Astronomical Twilight 4:51 AM MDT 10:42 PM MDT
Moon 12:27 PM MDT 10:36 PM MDT
Length of Visible Light 14h 49m
Length of Day
13h 40m
Tomorrow will be 3m 46s shorter.
Waxing Crescent, 23% of the Moon is Illuminated
Today
Waxing Crescent
Sep 2
First Quarter
Sep 8
Full
Sep 15
Last Quarter
Sep 24
New

Today's Extremes

Country Highs Country Lows

Community

WunderPhotos

Upload Photos

1,748,556 photos uploaded!

WunderBlogs® & News

Nearby

Snow Depth

Not available.

Earthquake Activity

City Distance Mag. Time & Date
No recent earthquake activity has been reported nearby.
Minimum magnitude displayed is 2.5.

Coastal Water Temperatures

Place Temperature
No Stations Reporting

Nearby Weather Stations